Time;durP1;ratioP1;P1;durP2;ratioP2;P2;SDS_P1;SDS_P2;PMS_P1;PMS_P2;Temp;Humidity;BMP_temperature;BMP_pressure;BME280_temperature;BME280_humidity;BME280_pressure;Samples;Min_cycle;Max_cycle;Signal;HPM_P1;HPM_P2
2022/05/02 00:01:37;;;;;;;30.05;23.73;;;5.60;92.80;;;;;;5048523;28;20333;-69
2022/05/02 00:04:03;;;;;;;29.48;23.75;;;5.60;93.20;;;;;;5058639;28;20358;-69
2022/05/02 00:06:29;;;;;;;34.92;26.05;;;5.60;92.80;;;;;;5058411;28;20029;-69
2022/05/02 00:08:54;;;;;;;34.92;25.70;;;5.70;92.90;;;;;;5060471;28;20036;-69
2022/05/02 00:11:20;;;;;;;34.88;24.77;;;5.70;93.10;;;;;;5049804;28;20044;-67
2022/05/02 00:13:46;;;;;;;36.25;26.52;;;5.70;93.70;;;;;;5054968;28;20369;-67
2022/05/02 00:16:11;;;;;;;35.45;26.05;;;5.70;93.60;;;;;;5052401;28;20020;-68
2022/05/02 00:18:37;;;;;;;39.28;28.23;;;5.60;93.80;;;;;;5059887;28;20107;-67
2022/05/02 00:21:03;;;;;;;33.10;24.58;;;5.40;93.90;;;;;;5055408;28;20040;-69
2022/05/02 00:23:29;;;;;;;34.13;24.42;;;5.30;93.70;;;;;;5055857;28;20031;-69
2022/05/02 00:25:55;;;;;;;31.52;25.08;;;5.20;93.50;;;;;;5054168;28;20100;-68
2022/05/02 00:28:21;;;;;;;31.42;23.20;;;5.10;93.20;;;;;;5055330;28;20109;-69
2022/05/02 00:30:46;;;;;;;34.80;26.33;;;5.00;93.40;;;;;;5053223;28;20428;-69
2022/05/02 00:33:13;;;;;;;32.90;24.55;;;4.90;93.20;;;;;;5053144;28;20032;-69
2022/05/02 00:35:38;;;;;;;37.70;28.27;;;4.70;93.10;;;;;;5034291;28;20349;-68
2022/05/02 00:38:05;;;;;;;35.67;26.65;;;4.70;92.10;;;;;;5057079;28;20017;-68
2022/05/02 00:40:32;;;;;;;43.15;31.45;;;4.80;91.30;;;;;;5034611;28;20112;-68
2022/05/02 00:42:57;;;;;;;37.92;28.70;;;4.90;91.30;;;;;;5050447;28;20064;-69
2022/05/02 00:45:23;;;;;;;37.72;29.10;;;4.90;91.40;;;;;;5049331;28;20482;-69
2022/05/02 00:47:54;;;;;;;40.63;29.25;;;4.80;91.60;;;;;;5053402;28;20422;-69
2022/05/02 00:50:41;;;;;;;40.38;30.38;;;4.80;90.80;;;;;;5059244;28;20029;-68
2022/05/02 00:53:09;;;;;;;38.05;28.40;;;4.90;90.10;;;;;;5051164;28;20346;-68
2022/05/02 00:55:39;;;;;;;39.35;30.33;;;4.90;90.70;;;;;;5053580;28;20100;-69
2022/05/02 00:58:06;;;;;;;40.47;30.63;;;5.00;90.10;;;;;;5051757;28;20112;-70
2022/05/02 01:00:34;;;;;;;39.03;28.95;;;5.10;90.40;;;;;;5053164;28;20041;-69
2022/05/02 01:03:01;;;;;;;42.60;30.95;;;5.10;90.50;;;;;;5055623;28;20048;-68
2022/05/02 01:05:27;;;;;;;40.65;29.63;;;5.20;90.50;;;;;;5065347;28;20021;-67
2022/05/02 01:07:52;;;;;;;38.60;28.23;;;5.20;91.40;;;;;;5059797;28;20052;-68
2022/05/02 01:10:18;;;;;;;39.83;29.70;;;5.20;91.20;;;;;;5057165;28;20017;-68
2022/05/02 01:12:46;;;;;;;36.95;28.02;;;5.20;91.60;;;;;;5036857;28;20029;-68
2022/05/02 01:15:16;;;;;;;36.13;26.90;;;5.20;91.40;;;;;;5068170;28;20031;-68
2022/05/02 01:17:42;;;;;;;37.22;27.17;;;5.10;92.20;;;;;;5062097;28;20025;-70
2022/05/02 01:20:10;;;;;;;36.58;27.13;;;5.00;92.10;;;;;;5038038;28;20076;-69
2022/05/02 01:22:36;;;;;;;33.55;25.27;;;4.90;91.40;;;;;;5057288;28;20025;-68
2022/05/02 01:25:02;;;;;;;34.67;26.58;;;4.90;91.60;;;;;;5066666;28;20448;-68
2022/05/02 01:27:28;;;;;;;35.03;25.98;;;4.90;91.10;;;;;;5058958;28;20029;-69
2022/05/02 01:29:53;;;;;;;37.30;27.20;;;4.80;91.50;;;;;;5056889;28;20444;-68
2022/05/02 01:32:19;;;;;;;39.20;27.13;;;4.80;91.40;;;;;;5071634;28;20087;-69
2022/05/02 01:34:44;;;;;;;33.33;24.83;;;4.80;91.10;;;;;;5064797;28;20031;-70
2022/05/02 01:37:12;;;;;;;34.75;27.25;;;4.70;91.30;;;;;;5070492;28;20025;-70
2022/05/02 01:39:38;;;;;;;36.80;28.00;;;4.60;91.40;;;;;;5067812;28;20094;-69
2022/05/02 01:42:06;;;;;;;40.55;28.98;;;4.50;91.60;;;;;;5063274;28;20028;-69
2022/05/02 01:44:32;;;;;;;39.65;28.42;;;4.50;91.20;;;;;;5060582;28;20029;-68
2022/05/02 01:46:58;;;;;;;39.42;28.02;;;4.40;90.60;;;;;;5064340;28;20024;-69
2022/05/02 01:49:27;;;;;;;35.30;26.67;;;4.50;90.50;;;;;;5066447;28;20099;-70
2022/05/02 01:51:53;;;;;;;37.03;26.75;;;4.50;90.60;;;;;;5057598;28;20429;-69
2022/05/02 01:54:19;;;;;;;39.40;27.73;;;4.50;90.40;;;;;;5058835;28;20051;-69
2022/05/02 01:56:45;;;;;;;38.00;27.17;;;4.40;90.40;;;;;;5058714;28;20457;-70
2022/05/02 01:59:11;;;;;;;36.42;26.00;;;4.30;90.50;;;;;;5067331;28;20048;-69
2022/05/02 02:01:36;;;;;;;36.65;26.88;;;4.30;90.30;;;;;;5059867;28;20103;-70
2022/05/02 02:05:48;;;;;;;32.15;26.00;;;4.30;90.00;;;;;;5056221;28;20021;-70
2022/05/02 02:06:51;;;;;;;36.83;26.77;;;4.40;89.10;;;;;;5061163;28;20033;-69
2022/05/02 02:09:17;;;;;;;36.35;26.50;;;4.50;89.20;;;;;;5065641;28;20028;-70
2022/05/02 02:11:42;;;;;;;37.47;27.38;;;4.60;88.70;;;;;;5059504;28;20028;-69
2022/05/02 02:14:08;;;;;;;35.50;26.83;;;4.70;89.60;;;;;;5054774;28;20039;-69
2022/05/02 02:16:34;;;;;;;35.55;27.35;;;4.70;89.40;;;;;;5058858;28;20024;-69
2022/05/02 02:19:00;;;;;;;41.97;28.05;;;4.80;89.40;;;;;;5055774;28;20028;-69
2022/05/02 02:21:25;;;;;;;35.42;28.23;;;4.90;90.30;;;;;;5055417;28;20038;-70
2022/05/02 02:23:59;;;;;;;36.05;26.98;;;5.00;90.30;;;;;;5056966;28;20020;-69
2022/05/02 02:26:24;;;;;;;36.95;26.67;;;5.10;91.20;;;;;;5055459;28;20036;-69
2022/05/02 02:28:50;;;;;;;34.08;25.67;;;5.20;92.20;;;;;;5059648;28;20410;-70
2022/05/02 02:31:16;;;;;;;36.45;28.17;;;5.20;92.80;;;;;;5052910;28;20112;-69
2022/05/02 02:33:41;;;;;;;42.75;27.05;;;5.10;93.20;;;;;;5057034;28;20479;-70
2022/05/02 02:36:07;;;;;;;36.63;27.90;;;5.20;93.30;;;;;;5037693;28;20691;-69
2022/05/02 02:38:33;;;;;;;37.92;26.85;;;5.10;93.20;;;;;;5057233;28;20044;-70
2022/05/02 02:40:58;;;;;;;33.13;25.27;;;5.10;93.50;;;;;;5057132;28;20047;-70
2022/05/02 02:43:24;;;;;;;36.83;25.73;;;5.10;93.70;;;;;;5054301;28;20033;-70
2022/05/02 02:45:50;;;;;;;36.78;26.77;;;5.00;93.90;;;;;;5056440;28;20029;-70
2022/05/02 02:48:15;;;;;;;37.75;27.10;;;5.00;93.40;;;;;;5039157;28;20063;-69
2022/05/02 02:50:41;;;;;;;36.45;26.35;;;5.00;93.60;;;;;;5056055;28;20322;-69
2022/05/02 02:53:07;;;;;;;36.38;27.52;;;5.00;93.40;;;;;;5054895;28;20108;-69
2022/05/02 02:55:32;;;;;;;35.92;26.88;;;5.00;93.80;;;;;;5056698;28;20028;-69
2022/05/02 02:57:59;;;;;;;35.47;26.05;;;5.10;93.80;;;;;;5054140;28;20028;-69
2022/05/02 03:00:27;;;;;;;36.28;27.13;;;5.10;94.10;;;;;;5054291;28;20612;-69
2022/05/02 03:02:54;;;;;;;33.85;24.70;;;5.10;94.00;;;;;;5054449;28;20888;-69
2022/05/02 03:08:04;;;;;;;;;;;5.00;94.90;;;;;;5054950;28;20175;-68
2022/05/02 03:10:30;;;;;;;35.63;26.23;;;4.70;94.90;;;;;;5053623;28;20003;-68
2022/05/02 03:12:57;;;;;;;36.63;25.48;;;4.50;94.60;;;;;;5061677;28;20032;-67
2022/05/02 03:15:23;;;;;;;44.20;27.92;;;4.50;93.40;;;;;;5054418;28;20021;-70
2022/05/02 03:17:48;;;;;;;40.80;28.98;;;4.50;93.10;;;;;;5061931;28;20035;-70
2022/05/02 03:20:14;;;;;;;39.20;26.50;;;4.50;92.50;;;;;;5054388;28;20040;-70
2022/05/02 03:22:40;;;;;;;36.58;25.35;;;4.40;92.30;;;;;;5059515;28;20654;-69
2022/05/02 03:25:06;;;;;;;37.45;26.98;;;4.50;91.90;;;;;;5056881;28;20931;-69
2022/05/02 03:27:32;;;;;;;39.67;26.92;;;4.50;91.50;;;;;;5056321;28;20017;-70
2022/05/02 03:29:57;;;;;;;34.28;24.67;;;4.40;92.10;;;;;;5059690;28;20024;-69
2022/05/02 03:32:23;;;;;;;38.95;27.85;;;4.30;91.70;;;;;;5053031;28;20027;-70
2022/05/02 03:34:48;;;;;;;36.33;27.30;;;4.30;91.30;;;;;;5052719;28;20111;-69
2022/05/02 03:37:14;;;;;;;38.38;28.60;;;4.30;91.00;;;;;;5053749;28;20021;-69
2022/05/02 03:39:40;;;;;;;39.15;26.85;;;4.30;90.90;;;;;;5050450;28;20023;-69
2022/05/02 03:42:06;;;;;;;34.22;25.35;;;4.30;90.80;;;;;;5052728;28;20028;-69
2022/05/02 03:44:31;;;;;;;33.90;25.25;;;4.20;91.10;;;;;;5051530;28;20021;-69
2022/05/02 03:47:00;;;;;;;35.25;25.38;;;4.10;91.20;;;;;;5038146;28;20032;-69
2022/05/02 03:49:25;;;;;;;31.83;24.60;;;4.00;90.50;;;;;;5037883;28;20050;-70
2022/05/02 03:51:54;;;;;;;34.28;26.08;;;3.90;90.50;;;;;;5055504;28;20097;-69
2022/05/02 03:54:20;;;;;;;40.97;28.23;;;3.90;90.10;;;;;;5049842;28;20941;-69
2022/05/02 03:56:46;;;;;;;39.50;29.38;;;3.90;90.10;;;;;;5053366;28;20029;-69
2022/05/02 03:59:11;;;;;;;42.20;26.48;;;3.80;89.50;;;;;;5053758;28;20338;-69
2022/05/02 04:01:39;;;;;;;34.03;26.33;;;3.90;89.40;;;;;;5062306;28;20040;-69
2022/05/02 04:04:05;;;;;;;39.58;25.90;;;3.90;88.70;;;;;;5051335;28;20029;-69
2022/05/02 04:06:31;;;;;;;43.10;30.52;;;3.90;88.90;;;;;;5054240;28;20166;-69
2022/05/02 04:08:57;;;;;;;36.70;27.85;;;3.80;88.80;;;;;;5048546;28;20041;-70
2022/05/02 04:11:23;;;;;;;41.92;29.23;;;3.90;88.00;;;;;;5033108;28;20090;-69
2022/05/02 04:13:51;;;;;;;38.17;28.83;;;3.90;88.20;;;;;;5052837;28;20322;-69
2022/05/02 04:16:17;;;;;;;41.22;29.25;;;4.10;86.70;;;;;;5052045;28;20433;-70
2022/05/02 04:18:43;;;;;;;38.85;27.77;;;4.20;86.60;;;;;;5053913;28;20029;-69
2022/05/02 04:21:09;;;;;;;44.60;31.05;;;4.30;86.50;;;;;;5053362;28;20039;-70
2022/05/02 04:23:35;;;;;;;43.17;30.38;;;4.50;86.30;;;;;;5051172;28;20032;-69
2022/05/02 04:26:01;;;;;;;43.33;31.35;;;4.70;86.20;;;;;;5048399;28;20028;-69
2022/05/02 04:28:28;;;;;;;41.40;30.25;;;4.80;86.40;;;;;;5055835;28;20029;-69
2022/05/02 04:30:53;;;;;;;42.50;29.80;;;5.00;86.70;;;;;;5048909;28;20127;-70
2022/05/02 04:33:19;;;;;;;36.97;27.92;;;5.10;87.90;;;;;;5055550;28;20108;-70
2022/05/02 04:35:45;;;;;;;36.40;28.25;;;5.10;88.90;;;;;;5051259;28;20120;-69
2022/05/02 04:38:10;;;;;;;39.60;27.58;;;5.00;89.80;;;;;;5057630;28;20017;-70
2022/05/02 04:40:36;;;;;;;39.25;29.42;;;5.00;89.70;;;;;;5052380;28;20290;-69
2022/05/02 04:43:02;;;;;;;33.00;24.23;;;4.90;90.00;;;;;;5057936;28;20029;-69
2022/05/02 04:45:27;;;;;;;33.53;25.13;;;4.80;90.90;;;;;;5050708;28;20406;-69
2022/05/02 04:47:53;;;;;;;36.95;26.23;;;4.70;90.10;;;;;;5050266;28;20036;-70
2022/05/02 04:50:19;;;;;;;34.50;26.23;;;4.80;90.00;;;;;;5052227;28;20036;-70
2022/05/02 04:52:44;;;;;;;39.35;27.45;;;4.80;89.40;;;;;;5061345;28;20373;-69
2022/05/02 04:55:10;;;;;;;36.88;26.95;;;4.80;89.60;;;;;;5054238;28;20311;-69
2022/05/02 04:57:36;;;;;;;39.67;28.48;;;4.80;90.60;;;;;;5050205;28;20049;-69
2022/05/02 05:00:03;;;;;;;31.75;24.58;;;4.60;90.60;;;;;;5036511;28;20045;-68
2022/05/02 05:02:29;;;;;;;32.65;25.17;;;4.60;90.20;;;;;;5034742;28;20120;-66
2022/05/02 05:04:54;;;;;;;36.35;27.38;;;4.60;90.10;;;;;;5033457;28;20112;-68
2022/05/02 05:07:20;;;;;;;39.03;29.20;;;4.60;89.70;;;;;;5033894;28;20080;-68
2022/05/02 05:09:46;;;;;;;35.92;26.63;;;4.60;89.20;;;;;;5032119;28;20021;-68
2022/05/02 05:12:26;;;;;;;36.13;25.48;;;4.70;88.90;;;;;;5033921;28;20476;-69
2022/05/02 05:18:00;;;;;;;37.53;28.52;;;5.00;88.20;;;;;;5032534;28;20039;-69
2022/05/02 05:20:52;;;;;;;39.22;28.23;;;5.20;87.50;;;;;;5027787;28;20032;-69
2022/05/02 05:23:30;;;;;;;42.58;29.65;;;5.30;87.60;;;;;;5025848;28;20029;-69
2022/05/02 05:26:44;;;;;;;35.08;26.20;;;5.40;88.80;;;;;;5031938;28;20025;-69
2022/05/02 05:29:37;;;;;;;31.92;23.85;;;5.50;88.20;;;;;;4964981;28;20642;-68
2022/05/02 05:32:14;;;;;;;35.58;26.48;;;5.70;87.20;;;;;;5030578;28;20033;-69
2022/05/02 05:35:07;;;;;;;35.63;26.30;;;5.90;89.00;;;;;;5032483;28;20025;-67
2022/05/02 05:37:48;;;;;;;34.03;26.58;;;6.10;88.10;;;;;;5028831;28;20098;-69
2022/05/02 05:40:28;;;;;;;30.90;25.90;;;6.20;89.10;;;;;;5031954;28;20114;-68
2022/05/02 05:43:23;;;;;;;33.67;25.67;;;6.40;89.00;;;;;;5021732;28;20025;-69
2022/05/02 05:46:34;;;;;;;34.45;25.95;;;6.50;90.50;;;;;;5030494;28;20030;-69
2022/05/02 05:49:10;;;;;;;43.80;32.92;;;6.70;90.40;;;;;;5017670;28;20041;-69
2022/05/02 05:51:38;;;;;;;38.70;27.83;;;6.90;91.50;;;;;;5037824;28;20091;-69
2022/05/02 05:54:23;;;;;;;40.00;30.33;;;7.00;92.80;;;;;;5035413;28;20029;-69
2022/05/02 05:57:07;;;;;;;29.50;23.80;;;7.10;95.10;;;;;;5037910;28;20026;-69
2022/05/02 05:59:32;;;;;;;;;;;7.30;94.70;;;;;;5046237;28;20041;-68
2022/05/02 06:02:17;;;;;;;41.92;31.27;;;7.50;96.10;;;;;;5058407;28;19909;-67
2022/05/02 06:04:47;;;;;;;38.53;29.13;;;7.70;96.90;;;;;;5055915;28;20028;-67
2022/05/02 06:07:12;;;;;;;37.45;29.45;;;7.80;97.40;;;;;;5058156;28;20025;-67
2022/05/02 06:09:42;;;;;;;39.38;28.25;;;8.00;98.00;;;;;;5057416;28;20029;-67
2022/05/02 06:12:13;;;;;;;31.40;26.35;;;8.10;98.00;;;;;;5038254;28;20072;-69
2022/05/02 06:20:15;;;;;;;34.28;26.27;;;8.40;98.00;;;;;;5057745;28;20048;-69
2022/05/02 06:22:42;;;;;;;33.50;23.80;;;8.60;98.00;;;;;;5057993;28;20013;-69
2022/05/02 06:25:08;;;;;;;29.38;23.08;;;8.70;98.00;;;;;;5054376;28;20329;-69
2022/05/02 06:27:35;;;;;;;29.75;22.90;;;8.90;98.00;;;;;;5067833;28;20053;-69
2022/05/02 06:30:03;;;;;;;28.13;22.85;;;9.00;98.00;;;;;;5053007;28;20063;-69
2022/05/02 06:32:30;;;;;;;29.63;22.65;;;9.10;98.00;;;;;;5039045;28;20428;-69
2022/05/02 06:34:56;;;;;;;28.02;21.27;;;9.10;98.00;;;;;;5057959;28;20032;-69
2022/05/02 06:37:37;;;;;;;26.88;21.70;;;9.20;98.00;;;;;;5056045;28;20078;-69
2022/05/02 06:40:04;;;;;;;26.48;20.77;;;9.40;98.00;;;;;;5040462;28;20397;-69
2022/05/02 06:42:39;;;;;;;25.70;20.38;;;9.50;98.00;;;;;;5055392;28;20032;-70
2022/05/02 06:45:22;;;;;;;26.02;20.08;;;9.70;98.00;;;;;;5055976;28;20025;-69
2022/05/02 06:48:09;;;;;;;29.70;20.47;;;9.80;98.00;;;;;;5055741;28;20024;-69
2022/05/02 06:50:38;;;;;;;27.13;18.95;;;9.90;97.50;;;;;;5054566;28;20025;-69
2022/05/02 06:53:22;;;;;;;24.77;18.38;;;10.00;97.60;;;;;;5056268;28;20043;-69
2022/05/02 06:56:03;;;;;;;25.60;17.83;;;9.90;96.90;;;;;;5056746;28;20308;-69
2022/05/02 06:58:31;;;;;;;23.35;17.85;;;10.10;96.80;;;;;;5057459;28;20060;-69
2022/05/02 07:01:14;;;;;;;23.05;17.08;;;10.40;96.30;;;;;;5054619;28;20040;-69
2022/05/02 07:03:52;;;;;;;25.27;19.02;;;10.70;95.10;;;;;;5037225;28;20026;-70
2022/05/02 07:06:46;;;;;;;29.40;19.92;;;10.70;94.70;;;;;;5053853;28;20033;-69
2022/05/02 07:09:37;;;;;;;22.77;17.73;;;10.60;94.90;;;;;;5054994;28;20028;-70
2022/05/02 07:12:16;;;;;;;24.30;18.63;;;10.50;95.50;;;;;;5049271;28;20025;-68
2022/05/02 07:14:57;;;;;;;24.85;18.13;;;10.70;95.10;;;;;;5055664;28;20025;-69
2022/05/02 07:17:42;;;;;;;23.05;17.20;;;10.90;94.10;;;;;;5053203;28;20040;-69
2022/05/02 07:20:20;;;;;;;21.98;16.65;;;11.10;93.30;;;;;;5041448;28;20033;-69
2022/05/02 07:23:03;;;;;;;24.50;18.27;;;11.20;93.80;;;;;;5055796;28;20363;-69
2022/05/02 07:25:30;;;;;;;20.90;16.58;;;11.20;93.90;;;;;;5057248;28;20021;-69
2022/05/02 07:28:15;;;;;;;23.35;16.83;;;11.30;93.00;;;;;;5054305;28;20414;-69
2022/05/02 07:30:41;;;;;;;26.33;19.75;;;11.30;93.20;;;;;;5055444;28;20025;-69
2022/05/02 07:33:08;;;;;;;30.58;22.23;;;11.10;93.60;;;;;;5055314;28;20028;-69
2022/05/02 07:35:37;;;;;;;27.63;20.40;;;11.00;94.40;;;;;;5056682;28;20448;-69
2022/05/02 07:38:04;;;;;;;26.10;19.05;;;11.20;94.60;;;;;;5055316;28;20509;-69
2022/05/02 07:40:30;;;;;;;23.58;17.23;;;11.70;94.00;;;;;;5056780;28;20032;-69
2022/05/02 07:42:58;;;;;;;26.13;19.55;;;12.30;91.80;;;;;;5055466;28;20029;-70
2022/05/02 07:45:28;;;;;;;20.23;15.32;;;12.70;90.70;;;;;;5055413;28;20036;-70
2022/05/02 07:47:58;;;;;;;20.88;15.45;;;13.20;89.40;;;;;;5054609;28;20028;-69
2022/05/02 07:50:26;;;;;;;18.25;14.05;;;13.70;87.60;;;;;;5056393;28;20318;-69
2022/05/02 07:52:52;;;;;;;18.60;14.63;;;13.90;87.50;;;;;;5056989;28;20168;-69
2022/05/02 07:55:22;;;;;;;17.20;13.55;;;14.90;85.70;;;;;;5056504;28;20389;-69
2022/05/02 07:57:48;;;;;;;17.25;14.32;;;15.70;82.20;;;;;;5052198;28;20151;-69
2022/05/02 08:00:16;;;;;;;17.60;13.70;;;16.10;80.60;;;;;;5055029;28;20056;-69
2022/05/02 08:02:43;;;;;;;15.27;12.07;;;16.40;80.60;;;;;;5054002;28;20028;-69
2022/05/02 08:05:20;;;;;;;15.00;12.07;;;16.90;79.10;;;;;;5049083;28;20052;-70
2022/05/02 08:07:46;;;;;;;15.75;12.80;;;17.60;76.50;;;;;;5054143;28;20033;-69
2022/05/02 08:10:42;;;;;;;15.40;12.38;;;17.40;76.10;;;;;;5055589;28;20302;-70
2022/05/02 08:13:31;;;;;;;15.23;12.18;;;16.50;77.80;;;;;;5034774;28;20116;-69
2022/05/02 08:16:05;;;;;;;17.73;13.77;;;16.60;78.30;;;;;;5031291;28;20414;-69
2022/05/02 08:18:31;;;;;;;18.52;13.07;;;15.60;80.50;;;;;;5056042;28;20032;-69
2022/05/02 08:21:07;;;;;;;16.90;12.40;;;15.70;82.20;;;;;;5054042;28;20306;-69
2022/05/02 08:27:19;;;;;;;17.27;12.65;;;17.10;76.30;;;;;;5062650;28;20090;-69
2022/05/02 08:29:50;;;;;;;17.13;12.48;;;17.10;76.30;;;;;;5035331;28;20330;-70
2022/05/02 08:32:28;;;;;;;16.58;13.43;;;16.80;77.20;;;;;;5050591;28;20419;-69
2022/05/02 08:35:03;;;;;;;18.65;14.43;;;15.80;79.10;;;;;;5054982;28;20025;-69
2022/05/02 08:37:50;;;;;;;17.45;14.02;;;14.40;82.30;;;;;;5037280;28;20498;-69
2022/05/02 08:40:19;;;;;;;18.73;15.77;;;13.70;85.10;;;;;;5053734;28;20028;-69
2022/05/02 08:43:06;;;;;;;18.30;15.50;;;13.30;86.60;;;;;;5035733;28;20025;-69
2022/05/02 08:45:59;;;;;;;20.65;15.27;;;12.90;87.90;;;;;;5034425;28;20108;-69
2022/05/02 08:51:56;;;;;;;18.98;14.40;;;12.90;88.70;;;;;;5046672;28;20329;-69
2022/05/02 08:54:46;;;;;;;17.20;12.32;;;13.30;87.60;;;;;;5036641;28;20414;-68
2022/05/02 08:57:33;;;;;;;19.88;13.57;;;14.70;85.30;;;;;;5055664;28;20330;-68
2022/05/02 09:00:07;;;;;;;19.00;14.27;;;15.50;81.50;;;;;;5036003;28;20071;-67
2022/05/02 09:03:09;;;;;;;16.95;13.90;;;15.70;80.60;;;;;;5053912;28;20021;-67
2022/05/02 09:05:56;;;;;;;15.40;13.05;;;15.20;81.20;;;;;;5054606;28;20322;-70
2022/05/02 09:09:13;;;;;;;17.52;13.07;;;14.80;81.30;;;;;;5054249;28;20025;-69
2022/05/02 09:11:59;;;;;;;17.55;13.25;;;15.00;82.90;;;;;;5000334;28;20042;-69
2022/05/02 09:14:37;;;;;;;16.13;11.75;;;15.70;80.50;;;;;;5046914;28;20039;-70
2022/05/02 09:17:30;;;;;;;15.43;12.48;;;16.10;79.50;;;;;;5055191;28;20028;-69
2022/05/02 09:20:10;;;;;;;15.80;11.88;;;16.70;77.70;;;;;;5053687;28;20063;-70
2022/05/02 09:23:13;;;;;;;13.63;9.60;;;17.40;75.80;;;;;;5056430;28;20032;-69
2022/05/02 09:26:06;;;;;;;15.35;10.45;;;18.60;72.40;;;;;;5058544;28;20106;-69
2022/05/02 09:29:04;;;;;;;16.52;11.95;;;18.70;72.10;;;;;;5058459;28;20112;-69
2022/05/02 09:32:16;;;;;;;15.70;12.85;;;18.00;72.80;;;;;;5052379;28;20119;-69
2022/05/02 09:35:02;;;;;;;14.48;11.65;;;17.00;75.00;;;;;;5038071;28;20045;-70
2022/05/02 09:37:57;;;;;;;16.88;12.93;;;17.50;75.30;;;;;;5057932;28;20560;-69
2022/05/02 09:40:43;;;;;;;17.08;12.00;;;18.10;72.90;;;;;;5055036;28;20033;-70
2022/05/02 09:49:43;;;;;;;15.70;12.48;;;17.40;74.70;;;;;;5057525;28;20083;-69
2022/05/02 09:52:16;;;;;;;14.43;12.10;;;17.10;75.40;;;;;;4971712;28;20043;-69
2022/05/02 09:58:03;;;;;;;17.10;13.30;;;16.60;76.00;;;;;;5024435;28;20068;-69
2022/05/02 10:01:13;;;;;;;16.27;13.10;;;16.90;77.00;;;;;;5055080;28;20323;-69
2022/05/02 10:04:08;;;;;;;14.88;11.88;;;17.10;75.00;;;;;;5037867;28;20053;-69
2022/05/02 10:06:46;;;;;;;14.82;12.70;;;17.50;74.40;;;;;;5052990;28;20083;-69
2022/05/02 10:09:12;;;;;;;16.35;12.50;;;17.60;73.80;;;;;;5058390;28;20320;-70
2022/05/02 10:12:05;;;;;;;16.73;13.65;;;17.30;74.90;;;;;;5057001;28;20021;-70
2022/05/02 10:14:56;;;;;;;15.13;13.25;;;17.10;75.80;;;;;;5058451;28;20033;-69
2022/05/02 10:17:54;;;;;;;19.67;12.55;;;17.40;74.20;;;;;;5047629;28;20151;-69
2022/05/02 10:20:22;;;;;;;15.52;13.20;;;18.10;72.70;;;;;;5045564;28;20465;-70
2022/05/02 10:23:19;;;;;;;14.93;11.68;;;18.30;72.00;;;;;;5058235;28;20437;-69
2022/05/02 10:26:01;;;;;;;14.35;10.70;;;19.30;71.30;;;;;;5053747;28;20063;-69
2022/05/02 10:28:53;;;;;;;13.90;10.32;;;20.50;67.50;;;;;;5057428;28;20040;-70
2022/05/02 10:31:25;;;;;;;12.30;9.40;;;21.40;66.70;;;;;;5055836;28;20100;-70
2022/05/02 10:33:52;;;;;;;15.20;10.30;;;21.50;64.10;;;;;;5057784;28;20334;-70
2022/05/02 10:36:28;;;;;;;12.18;9.60;;;20.40;66.40;;;;;;5055756;28;20104;-69
2022/05/02 10:39:01;;;;;;;13.10;9.82;;;19.70;66.50;;;;;;5046548;28;20025;-69
2022/05/02 10:41:29;;;;;;;11.70;9.25;;;19.50;67.50;;;;;;5055826;28;20040;-69
2022/05/02 10:44:03;;;;;;;13.88;9.88;;;20.00;67.30;;;;;;5057330;28;20385;-69
2022/05/02 10:46:33;;;;;;;12.80;10.52;;;20.40;66.60;;;;;;5054677;28;20358;-70
2022/05/02 10:49:06;;;;;;;11.55;9.52;;;19.50;67.90;;;;;;5056842;28;20037;-70
2022/05/02 10:51:51;;;;;;;13.00;9.73;;;19.10;69.40;;;;;;5057673;28;20029;-70
2022/05/02 10:54:32;;;;;;;11.75;9.10;;;18.90;69.50;;;;;;5056603;28;20447;-69
2022/05/02 10:57:11;;;;;;;13.25;9.52;;;19.50;69.20;;;;;;5056454;28;20032;-69
2022/05/02 10:59:41;;;;;;;10.23;8.15;;;19.30;70.20;;;;;;5055607;28;20077;-69
2022/05/02 11:02:25;;;;;;;10.05;7.70;;;18.70;70.10;;;;;;5056656;28;20024;-70
2022/05/02 11:05:08;;;;;;;13.82;9.23;;;19.30;70.40;;;;;;5056852;28;20023;-70
2022/05/02 11:07:52;;;;;;;12.35;8.93;;;20.30;66.60;;;;;;5056026;28;20039;-70
2022/05/02 11:10:19;;;;;;;;;;;20.50;65.70;;;;;;5021109;28;20030;-70
2022/05/02 11:13:10;;;;;;;11.73;8.75;;;20.10;65.80;;;;;;5049932;28;19908;-70
2022/05/02 11:16:01;;;;;;;12.93;7.57;;;19.50;67.40;;;;;;5018391;28;20025;-69
2022/05/02 11:21:51;;;;;;;9.40;6.93;;;21.20;66.10;;;;;;5055922;28;20075;-70
2022/05/02 11:24:36;;;;;;;10.75;7.22;;;21.80;61.60;;;;;;5057281;28;20081;-70
2022/05/02 11:27:21;;;;;;;10.90;6.43;;;21.10;63.10;;;;;;5054611;28;20438;-69
2022/05/02 11:30:10;;;;;;;11.02;8.10;;;20.40;65.80;;;;;;5055480;28;20067;-70
2022/05/02 11:32:48;;;;;;;8.65;6.47;;;20.10;63.50;;;;;;5042743;28;20121;-69
2022/05/02 11:35:24;;;;;;;9.73;7.00;;;19.80;66.50;;;;;;5037904;28;20033;-70
2022/05/02 11:38:15;;;;;;;11.98;7.95;;;20.40;65.50;;;;;;5054691;28;20021;-70
2022/05/02 11:40:47;;;;;;;9.30;7.20;;;20.20;63.20;;;;;;5055916;28;20032;-69
2022/05/02 11:43:21;;;;;;;7.75;6.22;;;20.00;65.00;;;;;;5055547;28;20485;-70
2022/05/02 11:46:22;;;;;;;9.43;7.15;;;21.00;62.90;;;;;;5054889;28;20032;-69
2022/05/02 11:49:09;;;;;;;9.98;7.13;;;20.90;62.30;;;;;;5055543;28;20040;-68
2022/05/02 11:51:45;;;;;;;11.43;7.15;;;20.00;63.90;;;;;;5055616;28;20075;-68
2022/05/02 11:54:36;;;;;;;8.45;6.30;;;19.70;65.20;;;;;;5056201;28;20029;-68
2022/05/02 11:57:14;;;;;;;9.38;6.82;;;20.10;65.20;;;;;;5053476;28;20131;-67
2022/05/02 12:00:05;;;;;;;7.93;5.95;;;19.90;64.70;;;;;;5055963;28;20410;-69
2022/05/02 12:02:48;;;;;;;11.18;6.55;;;19.70;64.40;;;;;;5045773;28;20029;-70
2022/05/02 12:05:27;;;;;;;8.10;6.00;;;20.30;63.50;;;;;;5054411;28;20054;-70
2022/05/02 12:07:57;;;;;;;8.10;5.97;;;19.80;64.50;;;;;;5053307;28;20017;-70
2022/05/02 12:10:41;;;;;;;7.70;5.72;;;19.30;64.30;;;;;;5055587;28;20032;-70
2022/05/02 12:13:12;;;;;;;9.13;6.32;;;18.80;66.60;;;;;;5054677;28;20033;-71
2022/05/02 12:15:56;;;;;;;7.60;5.85;;;18.80;65.80;;;;;;5053035;28;20032;-69
2022/05/02 12:18:22;;;;;;;;;;;19.10;64.70;;;;;;5054921;28;20048;-69
2022/05/02 12:20:54;;;;;;;7.35;5.22;;;19.50;65.30;;;;;;5054253;28;20306;-69
2022/05/02 12:23:25;;;;;;;6.85;5.03;;;20.50;64.20;;;;;;5054678;28;20075;-69
2022/05/02 12:25:56;;;;;;;7.05;5.30;;;21.80;61.60;;;;;;5055792;28;20112;-69
2022/05/02 12:28:47;;;;;;;7.57;4.97;;;22.30;59.20;;;;;;5054128;28;20052;-70
2022/05/02 12:31:27;;;;;;;7.72;4.40;;;22.80;56.90;;;;;;5052146;28;20075;-70
2022/05/02 12:34:06;;;;;;;8.35;4.70;;;22.60;57.50;;;;;;5052914;28;20310;-70
2022/05/02 12:36:55;;;;;;;7.72;5.68;;;22.00;57.20;;;;;;5055756;28;20114;-69
2022/05/02 12:39:27;;;;;;;8.50;5.60;;;21.50;58.40;;;;;;5056046;28;20021;-69
2022/05/02 12:42:18;;;;;;;7.78;5.13;;;21.30;61.40;;;;;;5053417;28;20389;-69
2022/05/02 12:44:47;;;;;;;9.48;5.97;;;21.50;61.60;;;;;;5054451;28;20040;-68
2022/05/02 12:47:25;;;;;;;7.28;5.03;;;22.10;59.50;;;;;;5038645;28;20445;-69
2022/05/02 12:50:08;;;;;;;8.60;6.20;;;22.60;61.30;;;;;;5036233;28;20036;-69
2022/05/02 12:52:41;;;;;;;8.73;6.35;;;22.00;59.60;;;;;;5029220;28;20024;-69
2022/05/02 12:55:08;;;;;;;7.22;5.40;;;21.50;60.40;;;;;;5037020;28;20033;-69
2022/05/02 13:00:31;;;;;;;7.55;5.13;;;20.40;62.40;;;;;;5035470;28;20477;-68
2022/05/02 13:03:19;;;;;;;7.40;5.07;;;20.00;63.80;;;;;;5032763;28;20033;-69
2022/05/02 13:05:55;;;;;;;8.00;5.97;;;20.10;63.50;;;;;;5032303;28;20443;-69
2022/05/02 13:08:33;;;;;;;6.88;4.88;;;19.90;62.90;;;;;;5032688;28;20063;-69
2022/05/02 13:11:08;;;;;;;7.38;5.60;;;20.20;63.50;;;;;;5030674;28;20389;-69
2022/05/02 13:13:45;;;;;;;7.60;5.30;;;21.40;62.10;;;;;;5034250;28;20031;-69
2022/05/02 13:16:21;;;;;;;7.63;5.25;;;22.40;60.20;;;;;;5024662;28;20032;-69
2022/05/02 13:18:48;;;;;;;7.03;4.60;;;22.30;59.30;;;;;;5030579;28;20026;-69
2022/05/02 13:21:15;;;;;;;7.57;5.55;;;21.80;61.50;;;;;;5028129;28;20037;-69
2022/05/02 13:23:46;;;;;;;12.18;5.88;;;21.40;60.20;;;;;;5028097;28;20033;-69
2022/05/02 13:26:26;;;;;;;8.65;5.22;;;20.40;62.70;;;;;;5032077;28;20037;-69
2022/05/02 13:29:00;;;;;;;8.45;6.15;;;20.00;64.20;;;;;;5025714;28;20032;-69
2022/05/02 13:31:47;;;;;;;7.28;4.72;;;20.40;63.50;;;;;;5048672;28;20078;-69
2022/05/02 13:34:35;;;;;;;7.45;5.03;;;21.60;60.60;;;;;;5055381;28;20049;-69
2022/05/02 13:37:15;;;;;;;8.52;5.35;;;22.20;58.80;;;;;;5047338;28;20036;-69
2022/05/02 13:39:56;;;;;;;8.63;5.68;;;22.00;58.10;;;;;;5059333;28;20029;-68
2022/05/02 13:42:36;;;;;;;7.65;5.20;;;21.50;59.90;;;;;;5061523;28;20028;-69
2022/05/02 13:45:28;;;;;;;7.13;5.40;;;21.00;62.00;;;;;;5058890;28;20612;-69
2022/05/02 13:48:19;;;;;;;6.90;5.28;;;21.00;61.60;;;;;;5060241;28;20056;-68